Red Rock, Texas
Current Conditions -  °F | °C
As of 8:53 AM on Wednesday 26 Nov 2014 (Local Time) from KAUS Reporting Station
Clear Clear  
Wind Chill: 56°   Ceiling: Unl
Heat Index: 56°   Visibility: 10mi
Dew Point: 33°   Wind: 14mph
Humidity: 42%   Direction: 230°SW
Pressure: 30.21"   Gusts: 23mph
Location:  29.96°N, 97.45°W
Report Text: KAUS 261453Z 23012G20KT 10SM CLR 13/01 A3021 RMK AO2 SLP231 T01330006 51007
Loading
Personal Weather Stations






























Interactive Weather Map New forecast layout! Learn more

10-Day Weather Forecast

Advertisements
Track Severe Weather on mobile